Time;durP1;ratioP1;P1;durP2;ratioP2;P2;SDS_P1;SDS_P2;PMS_P1;PMS_P2;Temp;Humidity;BMP_temperature;BMP_pressure;BME280_temperature;BME280_humidity;BME280_pressure;Samples;Min_cycle;Max_cycle;Signal;HPM_P1;HPM_P2
2021/01/27 00:00:49;;;;;;;5.85;4.57;;;7.30;57.50;;;;;;2121379;27;20024;-60
2021/01/27 00:02:10;;;;;;;6.18;4.45;;;7.30;57.40;;;;;;2120301;27;20019;-60
2021/01/27 00:03:31;;;;;;;5.60;4.60;;;7.30;57.30;;;;;;2117596;27;20038;-60
2021/01/27 00:04:52;;;;;;;4.43;4.00;;;7.30;57.40;;;;;;2122869;27;20039;-59
2021/01/27 00:06:13;;;;;;;4.53;4.00;;;7.30;57.30;;;;;;2120043;27;20142;-60
2021/01/27 00:07:33;;;;;;;4.35;3.95;;;7.30;57.30;;;;;;2122207;27;20058;-60
2021/01/27 00:08:54;;;;;;;5.82;4.43;;;7.30;57.40;;;;;;2121472;27;20050;-60
2021/01/27 00:10:17;;;;;;;5.03;4.50;;;7.30;57.40;;;;;;2121447;27;20571;-60
2021/01/27 00:11:37;;;;;;;4.00;3.60;;;7.30;57.30;;;;;;2120977;27;20118;-60
2021/01/27 00:12:59;;;;;;;4.22;3.38;;;7.30;57.40;;;;;;2123832;27;20031;-60
2021/01/27 00:14:20;;;;;;;5.07;4.03;;;7.30;57.30;;;;;;2122372;27;20020;-60
2021/01/27 00:15:42;;;;;;;6.13;4.20;;;7.30;57.20;;;;;;2122879;27;20023;-60
2021/01/27 00:17:03;;;;;;;5.53;4.03;;;7.30;57.10;;;;;;2117914;28;20058;-60
2021/01/27 00:18:24;;;;;;;4.88;3.72;;;7.30;57.10;;;;;;2121460;28;20102;-60
2021/01/27 00:19:45;;;;;;;4.28;3.53;;;7.30;57.10;;;;;;2119959;27;20035;-60
2021/01/27 00:21:06;;;;;;;4.30;3.90;;;7.30;57.10;;;;;;2119507;27;20034;-60
2021/01/27 00:22:27;;;;;;;5.43;3.88;;;7.30;57.10;;;;;;2120959;28;20072;-60
2021/01/27 00:23:48;;;;;;;4.68;3.40;;;7.40;56.90;;;;;;2124413;27;20079;-60
2021/01/27 00:25:09;;;;;;;3.80;3.35;;;7.30;56.80;;;;;;2116753;27;20074;-60
2021/01/27 00:26:30;;;;;;;4.60;3.67;;;7.30;56.70;;;;;;2119048;28;20030;-60
2021/01/27 00:27:51;;;;;;;4.90;3.15;;;7.30;56.70;;;;;;2122144;28;20102;-60
2021/01/27 00:29:12;;;;;;;4.28;3.28;;;7.30;56.50;;;;;;2117883;28;20035;-60
2021/01/27 00:30:36;;;;;;;4.10;3.38;;;7.30;56.50;;;;;;2122243;27;20026;-60
2021/01/27 00:31:57;;;;;;;5.55;3.50;;;7.30;56.30;;;;;;2121136;28;20055;-60
2021/01/27 00:33:17;;;;;;;3.80;3.50;;;7.30;56.30;;;;;;2116242;28;20015;-60
2021/01/27 00:34:38;;;;;;;4.07;3.67;;;7.30;56.10;;;;;;2120023;27;20019;-60
2021/01/27 00:35:59;;;;;;;3.88;3.22;;;7.30;56.30;;;;;;2116076;28;20140;-60
2021/01/27 00:37:21;;;;;;;3.72;3.42;;;7.30;56.20;;;;;;2116705;28;20031;-60
2021/01/27 00:38:42;;;;;;;3.72;3.40;;;7.30;56.10;;;;;;2124124;27;20115;-60
2021/01/27 00:40:05;;;;;;;4.18;3.28;;;7.30;56.30;;;;;;2122318;28;20391;-60
2021/01/27 00:41:26;;;;;;;3.72;3.22;;;7.30;56.20;;;;;;2123979;27;20130;-60
2021/01/27 00:42:47;;;;;;;3.30;3.08;;;7.30;56.40;;;;;;2121492;28;20019;-60
2021/01/27 00:44:08;;;;;;;3.55;3.25;;;7.30;56.20;;;;;;2119213;28;20031;-60
2021/01/27 00:45:29;;;;;;;3.45;3.15;;;7.30;56.10;;;;;;2123079;28;20110;-60
2021/01/27 00:46:50;;;;;;;4.82;3.45;;;7.30;56.10;;;;;;2121693;28;20438;-60
2021/01/27 00:48:11;;;;;;;3.47;3.13;;;7.30;55.80;;;;;;2120482;27;20035;-60
2021/01/27 00:49:32;;;;;;;3.50;3.20;;;7.30;55.90;;;;;;2116616;27;20031;-60
2021/01/27 00:50:54;;;;;;;4.47;3.22;;;7.40;56.00;;;;;;2120893;27;20034;-60
2021/01/27 00:52:15;;;;;;;4.25;3.00;;;7.30;55.90;;;;;;2121718;27;20101;-59
2021/01/27 00:53:35;;;;;;;3.60;3.30;;;7.40;55.90;;;;;;2120034;27;20481;-60
2021/01/27 00:54:56;;;;;;;4.05;3.17;;;7.40;55.90;;;;;;2123713;27;20058;-60
2021/01/27 00:56:18;;;;;;;3.30;3.00;;;7.30;55.80;;;;;;2122444;27;20115;-60
2021/01/27 00:57:39;;;;;;;3.67;3.38;;;7.30;55.80;;;;;;2124537;27;20358;-60
2021/01/27 00:58:59;;;;;;;4.20;3.33;;;7.30;55.80;;;;;;2127686;27;20027;-60
2021/01/27 01:00:22;;;;;;;4.22;3.30;;;7.40;55.70;;;;;;2121508;27;20027;-60
2021/01/27 01:01:43;;;;;;;8.88;3.55;;;7.40;55.70;;;;;;2122050;27;20023;-60
2021/01/27 01:03:05;;;;;;;4.43;3.15;;;7.40;55.80;;;;;;2120887;27;20164;-60
2021/01/27 01:04:26;;;;;;;3.58;3.28;;;7.40;55.70;;;;;;2123971;27;20119;-60
2021/01/27 01:05:47;;;;;;;3.30;3.00;;;7.40;55.60;;;;;;2121101;27;20418;-60
2021/01/27 01:07:08;;;;;;;3.45;3.15;;;7.40;55.60;;;;;;2120684;27;20034;-60
2021/01/27 01:08:29;;;;;;;3.28;3.00;;;7.40;55.60;;;;;;2123209;27;20023;-60
2021/01/27 01:09:50;;;;;;;4.78;3.10;;;7.40;55.50;;;;;;2122375;27;20028;-59
2021/01/27 01:11:11;;;;;;;3.35;3.15;;;7.40;55.50;;;;;;2122664;27;20373;-60
2021/01/27 01:12:32;;;;;;;3.33;3.13;;;7.40;55.40;;;;;;2121176;27;20662;-60
2021/01/27 01:13:53;;;;;;;4.78;3.17;;;7.40;55.40;;;;;;2127726;27;20030;-59
2021/01/27 01:15:15;;;;;;;3.38;2.90;;;7.40;55.40;;;;;;2112949;28;20023;-60
2021/01/27 01:16:38;;;;;;;3.65;3.35;;;7.40;55.30;;;;;;2119526;27;20465;-60
2021/01/27 01:18:00;;;;;;;4.60;2.80;;;7.40;55.30;;;;;;2123966;27;20652;-60
2021/01/27 01:19:21;;;;;;;5.10;3.35;;;7.40;55.30;;;;;;2121748;27;20038;-60
2021/01/27 01:20:42;;;;;;;3.58;3.17;;;7.40;55.30;;;;;;2120061;27;20026;-59
2021/01/27 01:22:03;;;;;;;5.15;3.10;;;7.40;55.20;;;;;;2119848;27;20122;-60
2021/01/27 01:23:24;;;;;;;3.00;2.70;;;7.40;55.20;;;;;;2123334;27;20046;-60
2021/01/27 01:24:45;;;;;;;3.50;3.20;;;7.40;55.20;;;;;;2118682;27;20055;-60
2021/01/27 01:26:06;;;;;;;3.22;2.95;;;7.50;55.30;;;;;;2111207;27;20031;-60
2021/01/27 01:27:26;;;;;;;3.50;3.20;;;7.40;55.20;;;;;;2115144;27;20389;-60
2021/01/27 01:28:47;;;;;;;3.35;3.05;;;7.40;55.10;;;;;;2123162;27;20031;-60
2021/01/27 01:30:22;;;;;;;3.50;3.20;;;7.50;55.20;;;;;;2119158;27;20027;-60
2021/01/27 01:31:43;;;;;;;4.00;2.90;;;7.40;54.80;;;;;;2122194;27;20038;-59
2021/01/27 01:33:09;;;;;;;4.35;3.13;;;7.40;55.20;;;;;;2117420;27;20034;-60
2021/01/27 01:34:30;;;;;;;4.63;3.00;;;7.40;55.00;;;;;;2123159;27;20075;-60
2021/01/27 01:35:51;;;;;;;4.18;2.90;;;7.50;55.10;;;;;;2122963;27;20045;-59
2021/01/27 01:37:12;;;;;;;3.55;2.80;;;7.50;55.00;;;;;;2127283;27;20545;-60
2021/01/27 01:38:33;;;;;;;3.00;2.70;;;7.50;55.00;;;;;;2122468;27;20042;-60
2021/01/27 01:39:54;;;;;;;3.22;2.88;;;7.50;55.10;;;;;;2119981;27;20023;-59
2021/01/27 01:41:14;;;;;;;3.13;2.80;;;7.50;55.00;;;;;;2121500;27;20031;-60
2021/01/27 01:42:36;;;;;;;3.25;2.88;;;7.50;54.80;;;;;;2127409;27;20023;-60
2021/01/27 01:43:57;;;;;;;3.38;3.08;;;7.50;54.50;;;;;;2123318;27;20019;-59
2021/01/27 01:45:28;;;;;;;3.25;2.80;;;7.50;54.90;;;;;;2121451;27;20033;-60
2021/01/27 01:46:49;;;;;;;2.88;2.65;;;7.50;54.90;;;;;;2113636;28;20019;-60
2021/01/27 01:48:35;;;;;;;3.22;2.83;;;7.50;55.10;;;;;;2116610;27;20389;-60
2021/01/27 01:49:56;;;;;;;4.90;3.00;;;7.50;54.90;;;;;;2122685;27;20126;-60
2021/01/27 01:51:20;;;;;;;4.47;3.13;;;7.50;55.20;;;;;;2120818;27;20414;-60
2021/01/27 01:52:41;;;;;;;3.22;2.92;;;7.50;55.30;;;;;;2122363;27;20023;-60
2021/01/27 01:54:08;;;;;;;3.38;3.08;;;7.50;55.20;;;;;;2118591;27;20031;-60
2021/01/27 01:55:29;;;;;;;3.70;2.90;;;7.50;55.40;;;;;;2123748;27;20070;-60
2021/01/27 01:57:30;;;;;;;3.05;2.75;;;7.50;55.50;;;;;;2121559;27;20058;-60
2021/01/27 01:58:54;;;;;;;3.25;2.95;;;7.50;55.40;;;;;;2121837;27;20034;-60
2021/01/27 02:00:16;;;;;;;3.10;2.88;;;7.50;55.70;;;;;;2120947;27;20084;-60
2021/01/27 02:01:39;;;;;;;3.78;3.22;;;7.40;55.80;;;;;;2123117;27;20077;-59
2021/01/27 02:03:01;;;;;;;5.38;3.35;;;7.40;55.70;;;;;;2118869;27;20107;-59
2021/01/27 02:04:26;;;;;;;3.20;3.00;;;7.40;55.80;;;;;;2121527;27;20043;-59
2021/01/27 02:05:48;;;;;;;3.40;3.10;;;7.40;55.90;;;;;;2122267;27;20023;-59
2021/01/27 02:07:09;;;;;;;3.90;3.20;;;7.40;56.00;;;;;;2120387;27;20024;-59
2021/01/27 02:08:31;;;;;;;3.20;3.00;;;7.40;56.10;;;;;;2122952;27;20105;-59
2021/01/27 02:09:52;;;;;;;3.33;3.03;;;7.40;56.20;;;;;;2122540;27;20031;-59
2021/01/27 02:11:20;;;;;;;3.70;3.25;;;7.30;56.30;;;;;;2121543;27;20028;-59
2021/01/27 02:13:18;;;;;;;3.88;3.28;;;7.30;56.30;;;;;;2126488;27;20027;-59
2021/01/27 02:15:02;;;;;;;4.57;3.20;;;7.30;56.40;;;;;;2120516;27;20110;-60
2021/01/27 02:16:33;;;;;;;4.72;3.08;;;7.30;56.50;;;;;;2121568;27;20020;-60
2021/01/27 02:18:03;;;;;;;5.28;2.50;;;7.30;56.50;;;;;;2123193;27;20065;-61
2021/01/27 02:19:52;;;;;;;3.42;3.13;;;7.30;56.60;;;;;;2120760;27;20473;-60
2021/01/27 02:21:19;;;;;;;3.70;2.80;;;7.20;56.60;;;;;;2123433;27;20031;-60
2021/01/27 02:23:05;;;;;;;3.38;3.00;;;7.30;56.70;;;;;;2120369;27;20346;-60
2021/01/27 02:25:01;;;;;;;4.10;2.65;;;7.20;56.70;;;;;;2121989;27;20408;-60
2021/01/27 02:26:56;;;;;;;5.07;3.10;;;7.20;56.90;;;;;;2122660;27;20512;-60
2021/01/27 02:28:30;;;;;;;2.85;2.65;;;7.20;57.00;;;;;;2122395;27;20513;-60
2021/01/27 02:29:54;;;;;;;3.22;2.72;;;7.20;57.10;;;;;;2127724;27;20035;-60
2021/01/27 02:31:27;;;;;;;3.17;2.90;;;7.10;57.10;;;;;;2122909;27;20133;-59
2021/01/27 02:33:04;;;;;;;3.75;2.80;;;7.20;57.40;;;;;;2121722;27;20125;-61
2021/01/27 02:34:55;;;;;;;3.55;3.00;;;7.10;57.50;;;;;;2122994;27;20023;-59
2021/01/27 02:36:24;;;;;;;3.10;2.50;;;7.10;57.90;;;;;;2121133;27;20353;-60
2021/01/27 02:37:55;;;;;;;2.97;2.78;;;7.10;57.70;;;;;;2127912;27;20100;-60
2021/01/27 02:39:22;;;;;;;2.88;2.67;;;7.10;57.60;;;;;;2122974;27;20076;-60
2021/01/27 02:40:54;;;;;;;5.03;2.90;;;7.00;57.90;;;;;;2119581;27;20012;-59
2021/01/27 02:42:15;;;;;;;3.00;2.80;;;7.00;57.70;;;;;;2119892;27;20043;-59
2021/01/27 02:43:39;;;;;;;2.78;2.58;;;7.00;58.00;;;;;;2121093;27;20038;-59
2021/01/27 02:45:30;;;;;;;3.25;2.92;;;7.00;58.20;;;;;;2115752;27;20367;-59
2021/01/27 02:46:53;;;;;;;2.90;2.60;;;7.00;58.50;;;;;;2121340;27;20470;-59
2021/01/27 02:48:21;;;;;;;2.85;2.65;;;6.90;58.40;;;;;;2120494;27;20034;-59
2021/01/27 02:49:53;;;;;;;3.33;2.70;;;6.90;58.50;;;;;;2126136;27;20741;-59
2021/01/27 02:51:23;;;;;;;4.18;2.90;;;6.90;58.60;;;;;;2125574;27;20080;-58
2021/01/27 02:52:54;;;;;;;3.08;2.88;;;6.90;58.60;;;;;;2119493;27;20566;-60
2021/01/27 02:54:29;;;;;;;2.65;2.45;;;6.90;58.70;;;;;;2120656;27;20019;-60
2021/01/27 02:55:57;;;;;;;3.15;2.42;;;6.90;58.70;;;;;;2123044;27;20076;-60
2021/01/27 02:57:27;;;;;;;2.83;2.42;;;6.90;58.80;;;;;;2120888;27;20490;-60
2021/01/27 02:59:09;;;;;;;2.80;2.60;;;6.90;58.80;;;;;;2120796;27;20118;-60
2021/01/27 03:00:43;;;;;;;2.88;2.60;;;6.80;58.90;;;;;;2122901;27;20370;-59
2021/01/27 03:02:17;;;;;;;4.45;2.63;;;6.80;58.90;;;;;;2120755;27;20410;-59
2021/01/27 03:03:43;;;;;;;6.65;2.78;;;6.90;59.00;;;;;;2122666;27;20106;-59
2021/01/27 03:05:42;;;;;;;3.35;2.70;;;6.80;58.90;;;;;;2119282;27;20036;-58
2021/01/27 03:07:04;;;;;;;3.10;2.80;;;6.80;59.10;;;;;;2120049;27;20039;-60
2021/01/27 03:08:28;;;;;;;4.78;3.00;;;6.80;58.90;;;;;;2126916;27;20031;-60
2021/01/27 03:10:01;;;;;;;3.90;2.70;;;6.80;59.00;;;;;;2119949;27;20039;-60
2021/01/27 03:11:25;;;;;;;3.08;2.50;;;6.80;59.10;;;;;;2120629;27;20039;-60
2021/01/27 03:12:55;;;;;;;2.80;2.53;;;6.80;59.10;;;;;;2121100;27;20019;-60
2021/01/27 03:14:16;;;;;;;2.90;2.70;;;6.80;59.20;;;;;;2121533;27;20031;-60
2021/01/27 03:15:40;;;;;;;4.90;2.75;;;6.80;59.20;;;;;;2118505;27;20023;-60
2021/01/27 03:17:14;;;;;;;3.15;2.85;;;6.80;59.20;;;;;;2117712;27;20027;-60
2021/01/27 03:18:39;;;;;;;3.05;2.60;;;6.80;59.30;;;;;;2119963;27;20445;-60
2021/01/27 03:20:12;;;;;;;5.65;3.22;;;6.80;59.30;;;;;;2118097;27;20043;-60
2021/01/27 03:21:39;;;;;;;2.72;2.53;;;6.80;59.30;;;;;;2117698;27;20510;-60
2021/01/27 03:23:11;;;;;;;2.47;2.28;;;6.80;59.40;;;;;;2126104;27;20672;-61
2021/01/27 03:24:40;;;;;;;3.78;2.90;;;6.80;59.50;;;;;;2122669;27;20028;-60
2021/01/27 03:26:34;;;;;;;3.28;2.58;;;6.80;59.40;;;;;;2122374;27;20026;-60
2021/01/27 03:28:04;;;;;;;3.83;2.78;;;6.80;59.50;;;;;;2122870;27;20027;-60
2021/01/27 03:29:46;;;;;;;3.75;2.75;;;6.80;59.40;;;;;;2121992;27;20076;-60
2021/01/27 03:31:07;;;;;;;2.33;2.13;;;6.80;59.50;;;;;;2118218;27;20467;-60
2021/01/27 03:32:45;;;;;;;2.53;2.30;;;6.80;59.50;;;;;;2122069;27;20027;-60
2021/01/27 03:34:17;;;;;;;2.30;2.20;;;6.80;59.60;;;;;;2118714;27;20457;-60
2021/01/27 03:35:49;;;;;;;2.63;2.47;;;6.80;59.50;;;;;;2122756;27;20019;-60
2021/01/27 03:37:19;;;;;;;2.30;2.20;;;6.80;59.50;;;;;;2119993;27;20031;-60
2021/01/27 03:38:50;;;;;;;2.53;2.33;;;6.80;59.50;;;;;;2119728;27;20172;-60
2021/01/27 03:40:15;;;;;;;2.65;2.45;;;6.80;59.60;;;;;;2119983;27;20023;-59
2021/01/27 03:41:51;;;;;;;2.55;2.35;;;6.80;59.60;;;;;;2119780;27;20118;-61
2021/01/27 03:43:16;;;;;;;4.40;2.58;;;6.80;59.60;;;;;;2119281;27;20035;-58
2021/01/27 03:44:43;;;;;;;2.47;2.28;;;6.80;59.60;;;;;;2119369;27;20028;-60
2021/01/27 03:46:15;;;;;;;2.53;2.33;;;6.90;59.70;;;;;;2119535;27;20030;-60
2021/01/27 03:47:48;;;;;;;2.88;2.30;;;6.90;59.60;;;;;;2118610;27;20011;-60
2021/01/27 03:49:17;;;;;;;2.63;2.28;;;6.90;59.50;;;;;;2120938;27;20519;-60
2021/01/27 03:50:41;;;;;;;3.08;2.78;;;6.90;59.60;;;;;;2119297;27;20027;-60
2021/01/27 03:52:10;;;;;;;2.33;2.13;;;6.90;59.60;;;;;;2117909;27;20114;-59
2021/01/27 03:53:33;;;;;;;2.95;2.58;;;6.90;59.60;;;;;;2127157;27;20045;-60
2021/01/27 03:55:15;;;;;;;2.53;2.33;;;6.90;59.60;;;;;;2121753;27;20023;-60
2021/01/27 03:56:39;;;;;;;2.78;2.58;;;6.90;59.60;;;;;;2120607;27;20407;-61
2021/01/27 03:58:18;;;;;;;2.47;2.28;;;6.90;59.60;;;;;;2126696;27;20042;-60
2021/01/27 03:59:39;;;;;;;2.83;2.55;;;6.90;59.60;;;;;;2119743;27;20019;-60
2021/01/27 04:01:07;;;;;;;2.80;2.60;;;6.90;59.60;;;;;;2122358;27;20397;-60
2021/01/27 04:02:28;;;;;;;3.33;2.70;;;6.90;59.60;;;;;;2122183;27;20023;-60
2021/01/27 04:03:51;;;;;;;4.13;2.80;;;6.90;59.50;;;;;;2120153;27;20038;-60
2021/01/27 04:05:12;;;;;;;3.65;2.50;;;6.90;59.50;;;;;;2118947;27;20031;-60
2021/01/27 04:06:33;;;;;;;3.47;2.67;;;6.90;59.50;;;;;;2124942;27;20032;-60
2021/01/27 04:07:54;;;;;;;2.67;2.53;;;6.90;59.60;;;;;;2118892;27;20023;-60
2021/01/27 04:09:15;;;;;;;4.03;2.90;;;6.90;59.50;;;;;;2120620;27;20027;-60
2021/01/27 04:10:36;;;;;;;2.85;2.45;;;6.90;59.60;;;;;;2118358;27;20031;-60
2021/01/27 04:11:58;;;;;;;3.10;2.63;;;6.90;59.60;;;;;;2126359;27;20035;-60
2021/01/27 04:13:19;;;;;;;3.22;2.50;;;6.90;59.60;;;;;;2121865;27;20019;-60
2021/01/27 04:14:40;;;;;;;2.70;2.50;;;6.90;59.60;;;;;;2120359;27;20059;-60
2021/01/27 04:16:01;;;;;;;2.58;2.13;;;6.90;59.60;;;;;;2121055;27;20110;-60
2021/01/27 04:17:30;;;;;;;3.67;2.50;;;6.90;59.70;;;;;;2122052;27;20020;-60
2021/01/27 04:18:51;;;;;;;2.20;2.10;;;7.00;59.80;;;;;;2120743;27;20028;-60
2021/01/27 04:20:12;;;;;;;3.78;2.60;;;7.00;59.80;;;;;;2119400;28;20092;-60
2021/01/27 04:21:33;;;;;;;2.80;2.50;;;7.00;59.70;;;;;;2121516;27;20042;-59
2021/01/27 04:22:54;;;;;;;3.70;2.50;;;7.00;59.60;;;;;;2124851;27;20034;-60
2021/01/27 04:24:15;;;;;;;2.55;2.35;;;7.00;59.60;;;;;;2119768;28;20020;-60
2021/01/27 04:25:36;;;;;;;3.50;2.25;;;7.00;59.50;;;;;;2122770;28;20032;-60
2021/01/27 04:26:57;;;;;;;2.63;2.40;;;7.00;59.50;;;;;;2122530;28;20038;-59
2021/01/27 04:28:18;;;;;;;2.42;2.22;;;7.00;59.50;;;;;;2119320;28;20027;-59
2021/01/27 04:29:40;;;;;;;2.63;2.40;;;7.00;59.60;;;;;;2121078;28;20034;-60
2021/01/27 04:31:01;;;;;;;2.60;2.40;;;7.00;59.60;;;;;;2120853;28;20039;-59
2021/01/27 04:32:21;;;;;;;2.45;2.35;;;7.00;59.60;;;;;;2124566;27;20046;-59
2021/01/27 04:33:43;;;;;;;2.60;2.40;;;7.10;59.70;;;;;;2123267;27;20034;-59
2021/01/27 04:35:05;;;;;;;3.22;2.45;;;7.00;59.60;;;;;;2119514;28;20061;-60
2021/01/27 04:36:26;;;;;;;2.50;2.30;;;7.10;59.60;;;;;;2112286;28;20069;-60
2021/01/27 04:37:47;;;;;;;1.98;1.85;;;7.00;59.60;;;;;;2117815;28;20458;-60
2021/01/27 04:39:08;;;;;;;4.65;2.58;;;7.10;59.70;;;;;;2117755;28;20046;-59
2021/01/27 04:40:37;;;;;;;2.53;2.20;;;7.10;59.70;;;;;;2121264;27;20011;-59
2021/01/27 04:41:58;;;;;;;3.15;2.10;;;7.10;59.60;;;;;;2126645;27;20035;-59
2021/01/27 04:43:20;;;;;;;2.45;2.20;;;7.10;59.60;;;;;;2121194;28;20042;-59
2021/01/27 04:44:41;;;;;;;2.75;2.53;;;7.10;59.60;;;;;;2119869;28;20031;-59
2021/01/27 04:46:15;;;;;;;2.17;2.08;;;7.10;59.60;;;;;;2117018;27;20475;-59
2021/01/27 04:47:57;;;;;;;2.47;2.15;;;7.10;59.50;;;;;;2117878;28;20058;-60
2021/01/27 04:49:23;;;;;;;2.90;2.25;;;7.10;59.50;;;;;;2121823;27;20476;-60
2021/01/27 04:50:53;;;;;;;3.15;2.10;;;7.20;59.50;;;;;;2123515;27;20030;-60
2021/01/27 04:52:50;;;;;;;2.30;2.10;;;7.20;59.40;;;;;;2121294;28;20045;-59
2021/01/27 04:54:43;;;;;;;2.45;2.13;;;7.20;59.40;;;;;;2119375;28;20031;-59
2021/01/27 04:56:33;;;;;;;2.63;2.22;;;7.20;59.30;;;;;;2117702;27;20038;-59
2021/01/27 04:58:16;;;;;;;2.22;2.03;;;7.20;59.30;;;;;;2114338;28;20147;-59
2021/01/27 05:00:07;;;;;;;2.00;1.90;;;7.20;59.10;;;;;;2119219;28;20063;-59
2021/01/27 05:01:57;;;;;;;2.35;2.10;;;7.20;59.10;;;;;;2117362;28;20060;-59
2021/01/27 05:03:51;;;;;;;2.35;1.85;;;7.20;59.00;;;;;;2119771;28;20088;-60
2021/01/27 05:05:17;;;;;;;1.88;1.77;;;7.20;59.00;;;;;;2118961;28;20335;-60
2021/01/27 05:06:42;;;;;;;2.15;2.05;;;7.20;59.10;;;;;;2119911;28;20047;-60
2021/01/27 05:08:09;;;;;;;2.15;1.95;;;7.20;59.10;;;;;;2118619;28;20582;-60
2021/01/27 05:09:55;;;;;;;2.13;2.00;;;7.20;59.10;;;;;;2122293;27;20015;-60
2021/01/27 05:11:19;;;;;;;2.08;1.88;;;7.30;59.00;;;;;;2122479;27;20476;-60
2021/01/27 05:12:49;;;;;;;2.28;2.08;;;7.20;59.00;;;;;;2112463;28;20138;-60
2021/01/27 05:14:15;;;;;;;2.83;2.25;;;7.30;59.00;;;;;;2117371;27;20031;-60
2021/01/27 05:15:36;;;;;;;1.70;1.60;;;7.20;58.90;;;;;;2121483;28;20038;-60
2021/01/27 05:17:01;;;;;;;2.47;1.83;;;7.20;58.90;;;;;;2122654;27;20465;-59
2021/01/27 05:18:22;;;;;;;2.00;1.80;;;7.30;59.00;;;;;;2120627;28;20416;-60
2021/01/27 05:19:44;;;;;;;2.17;2.00;;;7.20;59.00;;;;;;2121321;28;20027;-59
2021/01/27 05:21:36;;;;;;;3.78;2.30;;;7.20;59.00;;;;;;2114793;27;20622;-59
2021/01/27 05:22:57;;;;;;;2.53;2.33;;;7.30;59.00;;;;;;2122735;28;20371;-59
2021/01/27 05:24:19;;;;;;;1.75;1.65;;;7.30;59.00;;;;;;2119599;28;20034;-59
2021/01/27 05:26:11;;;;;;;1.92;1.77;;;7.20;59.10;;;;;;2117879;28;20031;-60
2021/01/27 05:27:36;;;;;;;1.98;1.63;;;7.30;59.10;;;;;;2118924;27;20118;-59
2021/01/27 05:29:08;;;;;;;1.88;1.77;;;7.20;59.10;;;;;;2120823;27;20042;-59
2021/01/27 05:30:36;;;;;;;1.70;1.60;;;7.20;59.10;;;;;;2116406;28;20038;-59
2021/01/27 05:32:03;;;;;;;1.42;1.42;;;7.20;59.20;;;;;;2125280;27;20043;-59
2021/01/27 05:33:46;;;;;;;1.63;1.52;;;7.20;59.20;;;;;;2121301;27;20026;-60
2021/01/27 05:35:26;;;;;;;1.38;1.38;;;7.30;59.30;;;;;;2117670;27;20533;-59
2021/01/27 05:36:48;;;;;;;1.40;1.30;;;7.30;59.40;;;;;;2120038;27;20151;-60
2021/01/27 05:38:26;;;;;;;1.20;1.20;;;7.20;59.30;;;;;;2119981;27;20032;-59
2021/01/27 05:39:49;;;;;;;1.40;1.27;;;7.20;59.50;;;;;;2123344;27;20686;-59
2021/01/27 05:41:29;;;;;;;1.30;1.30;;;7.20;59.50;;;;;;2122262;27;20076;-61
2021/01/27 05:42:50;;;;;;;1.40;1.30;;;7.20;59.70;;;;;;2127429;27;20030;-60
2021/01/27 05:44:15;;;;;;;1.40;1.40;;;7.20;59.60;;;;;;2122454;27;20026;-59
2021/01/27 05:45:44;;;;;;;1.50;1.40;;;7.20;59.90;;;;;;2114931;28;20065;-59
2021/01/27 05:47:33;;;;;;;1.48;1.40;;;7.20;59.90;;;;;;2120870;27;20091;-59
2021/01/27 05:48:55;;;;;;;1.30;1.30;;;7.20;60.00;;;;;;2114326;28;20113;-58
2021/01/27 05:50:22;;;;;;;1.40;1.40;;;7.20;59.90;;;;;;2117106;27;20410;-60
2021/01/27 05:51:43;;;;;;;3.33;1.70;;;7.10;60.00;;;;;;2125032;27;20031;-60
2021/01/27 05:53:15;;;;;;;1.38;1.30;;;7.10;60.10;;;;;;2120712;27;20020;-59
2021/01/27 05:54:35;;;;;;;3.72;1.33;;;7.10;60.40;;;;;;2121032;27;20575;-59
2021/01/27 05:56:02;;;;;;;1.30;1.30;;;7.10;60.40;;;;;;2121832;27;20042;-60
2021/01/27 05:57:28;;;;;;;1.52;1.20;;;7.00;60.50;;;;;;2123439;27;20053;-61
2021/01/27 05:59:19;;;;;;;1.25;1.15;;;7.00;60.70;;;;;;2122578;27;20063;-60
2021/01/27 06:00:40;;;;;;;1.58;1.48;;;7.00;60.90;;;;;;2119629;27;20547;-60
2021/01/27 06:02:03;;;;;;;1.50;1.50;;;6.90;60.80;;;;;;2126820;27;20023;-60
2021/01/27 06:03:24;;;;;;;1.40;1.40;;;6.90;60.90;;;;;;2123345;27;20019;-60
2021/01/27 06:04:57;;;;;;;1.30;1.30;;;6.90;61.00;;;;;;2120348;27;20027;-60
2021/01/27 06:06:18;;;;;;;1.83;1.60;;;6.90;61.40;;;;;;2121931;27;20084;-60
2021/01/27 06:07:41;;;;;;;1.58;1.40;;;6.90;61.20;;;;;;2121018;27;20027;-60
2021/01/27 06:09:05;;;;;;;1.48;1.38;;;6.80;61.40;;;;;;2119781;27;20062;-60
2021/01/27 06:10:26;;;;;;;1.25;1.25;;;6.80;61.60;;;;;;2126216;27;20027;-60
2021/01/27 06:12:00;;;;;;;1.35;1.25;;;6.80;61.50;;;;;;2121838;27;20031;-60
2021/01/27 06:13:30;;;;;;;1.30;1.30;;;6.80;61.70;;;;;;2121779;27;20410;-60
2021/01/27 06:15:03;;;;;;;;;;;6.80;61.70;;;;;;2123417;27;20886;-60
2021/01/27 06:16:34;;;;;;;1.33;1.33;;;6.80;62.00;;;;;;2123014;27;19960;-60
2021/01/27 06:17:56;;;;;;;1.42;1.40;;;6.70;61.60;;;;;;2121665;27;20105;-60
2021/01/27 06:19:25;;;;;;;1.65;1.55;;;6.80;61.50;;;;;;2120432;27;20031;-60
2021/01/27 06:20:47;;;;;;;1.60;1.50;;;6.70;61.80;;;;;;2121309;27;20024;-60
2021/01/27 06:22:53;;;;;;;2.28;1.50;;;6.70;61.80;;;;;;2119410;27;20621;-60
2021/01/27 06:24:38;;;;;;;1.15;1.15;;;6.70;62.40;;;;;;2102220;27;21792;-60
2021/01/27 06:26:18;;;;;;;1.50;1.50;;;6.60;62.20;;;;;;2118345;27;20066;-60
2021/01/27 06:28:01;;;;;;;1.48;1.38;;;6.60;61.90;;;;;;2117569;27;20118;-60
2021/01/27 06:29:32;;;;;;;1.40;1.30;;;6.60;62.60;;;;;;2121401;27;20118;-60
2021/01/27 06:31:10;;;;;;;1.20;1.20;;;6.60;62.40;;;;;;2126869;27;20116;-60
2021/01/27 06:32:31;;;;;;;1.48;1.38;;;6.50;62.60;;;;;;2122137;27;20140;-61
2021/01/27 06:34:17;;;;;;;1.73;1.63;;;6.50;62.40;;;;;;2122903;27;20027;-61
2021/01/27 06:35:44;;;;;;;1.60;1.50;;;6.50;63.00;;;;;;2117784;27;20733;-60
2021/01/27 06:37:17;;;;;;;1.95;1.70;;;6.50;62.80;;;;;;2118824;27;20021;-60
2021/01/27 06:39:13;;;;;;;1.77;1.60;;;6.50;62.80;;;;;;2117434;27;20082;-60
2021/01/27 06:40:39;;;;;;;2.47;1.45;;;6.40;63.20;;;;;;2120409;27;20023;-61
2021/01/27 06:42:39;;;;;;;1.65;1.48;;;6.50;62.90;;;;;;2122323;27;20127;-61
2021/01/27 06:44:14;;;;;;;1.77;1.67;;;6.50;63.40;;;;;;2117606;27;20597;-60
2021/01/27 06:46:01;;;;;;;1.48;1.38;;;6.50;62.90;;;;;;2118079;27;20075;-61
2021/01/27 06:47:25;;;;;;;1.70;1.60;;;6.50;63.10;;;;;;2122945;27;20035;-61
2021/01/27 06:49:16;;;;;;;1.70;1.60;;;6.50;62.80;;;;;;2119339;27;20027;-60
2021/01/27 06:51:17;;;;;;;1.80;1.67;;;6.40;63.40;;;;;;2119223;27;20578;-60
2021/01/27 06:52:53;;;;;;;2.83;1.60;;;6.50;63.50;;;;;;2119149;27;20362;-60
2021/01/27 06:54:43;;;;;;;2.00;1.90;;;6.50;63.20;;;;;;2120484;27;20027;-60
2021/01/27 06:56:22;;;;;;;1.98;1.85;;;6.40;63.50;;;;;;2119031;27;20023;-60
2021/01/27 06:57:55;;;;;;;1.87;1.70;;;6.40;63.50;;;;;;2118508;27;20323;-60
2021/01/27 06:59:49;;;;;;;1.77;1.67;;;6.40;63.50;;;;;;2117487;27;20039;-60
2021/01/27 07:01:47;;;;;;;1.80;1.70;;;6.40;63.70;;;;;;2117927;27;20351;-60
2021/01/27 07:03:34;;;;;;;1.90;1.80;;;6.40;63.90;;;;;;2119187;27;20153;-60
2021/01/27 07:05:01;;;;;;;1.90;1.80;;;6.40;64.10;;;;;;2120539;27;20008;-60
2021/01/27 07:06:54;;;;;;;1.73;1.63;;;6.40;63.70;;;;;;2120705;27;20031;-60
2021/01/27 07:08:30;;;;;;;2.05;1.95;;;6.40;64.00;;;;;;2120737;27;20633;-60
2021/01/27 07:10:08;;;;;;;3.40;2.20;;;6.40;63.90;;;;;;2118392;27;20042;-60
2021/01/27 07:11:53;;;;;;;5.13;2.00;;;6.30;63.90;;;;;;2122470;27;20034;-60
2021/01/27 07:13:25;;;;;;;2.53;1.70;;;6.40;64.30;;;;;;2120313;27;20420;-60
2021/01/27 07:14:48;;;;;;;2.05;1.95;;;6.40;64.00;;;;;;2121627;27;20504;-60
2021/01/27 07:16:39;;;;;;;3.10;2.40;;;6.40;64.10;;;;;;2118344;27;20030;-59
2021/01/27 07:18:37;;;;;;;2.92;2.22;;;6.40;64.60;;;;;;2121030;27;20629;-60
2021/01/27 07:20:15;;;;;;;1.73;1.63;;;6.40;64.60;;;;;;2116457;27;20035;-60
2021/01/27 07:21:41;;;;;;;2.22;2.08;;;6.40;64.30;;;;;;2116322;27;20027;-60
2021/01/27 07:23:21;;;;;;;3.58;2.20;;;6.40;64.00;;;;;;2118315;27;20081;-59
2021/01/27 07:25:08;;;;;;;2.60;2.25;;;6.40;64.00;;;;;;2120411;27;20525;-59
2021/01/27 07:26:41;;;;;;;2.85;2.17;;;6.40;64.20;;;;;;2119670;27;20034;-60
2021/01/27 07:28:11;;;;;;;3.03;1.92;;;6.40;64.30;;;;;;2120721;27;20019;-61
2021/01/27 07:29:47;;;;;;;2.67;2.47;;;6.40;64.40;;;;;;2119369;27;20046;-60
2021/01/27 07:31:15;;;;;;;2.33;2.20;;;6.40;64.40;;;;;;2118126;27;20029;-60
2021/01/27 07:32:40;;;;;;;2.17;2.08;;;6.40;64.50;;;;;;2119655;27;20069;-60
2021/01/27 07:34:19;;;;;;;2.67;2.30;;;6.40;64.50;;;;;;2117334;27;20123;-60
2021/01/27 07:35:52;;;;;;;2.40;2.20;;;6.40;64.50;;;;;;2119408;27;20027;-60
2021/01/27 07:37:43;;;;;;;3.58;2.35;;;6.40;64.60;;;;;;2118422;27;20035;-60
2021/01/27 07:39:22;;;;;;;3.35;2.25;;;6.40;64.80;;;;;;2119503;27;20074;-60
2021/01/27 07:40:55;;;;;;;2.40;2.20;;;6.40;64.70;;;;;;2121360;27;20026;-60
2021/01/27 07:42:42;;;;;;;3.55;2.05;;;6.40;64.90;;;;;;2118498;27;20031;-60
2021/01/27 07:44:11;;;;;;;2.17;2.08;;;6.40;65.00;;;;;;2119111;27;20027;-60
2021/01/27 07:45:34;;;;;;;3.67;2.10;;;6.40;65.10;;;;;;2118023;27;20402;-60
2021/01/27 07:47:17;;;;;;;2.70;2.50;;;6.50;64.80;;;;;;2122585;27;20027;-60
2021/01/27 07:48:45;;;;;;;2.22;2.10;;;6.40;65.10;;;;;;2118380;27;20035;-60
2021/01/27 07:50:07;;;;;;;2.33;2.22;;;6.40;64.80;;;;;;2119304;27;20118;-60
2021/01/27 07:51:57;;;;;;;2.60;2.40;;;6.40;64.90;;;;;;2116675;27;20031;-60